Time;durP1;ratioP1;P1;durP2;ratioP2;P2;SDS_P1;SDS_P2;PMS_P1;PMS_P2;Temp;Humidity;BMP_temperature;BMP_pressure;BME280_temperature;BME280_humidity;BME280_pressure;Samples;Min_cycle;Max_cycle;Signal;HPM_P1;HPM_P2
2022/11/24 00:01:53;;;;;;;5.40;1.63;;;8.20;99.90;;;;;;5017962;28;20229;-89
2022/11/24 00:04:18;;;;;;;2.97;1.80;;;8.20;99.90;;;;;;4999489;28;20602;-91
2022/11/24 00:06:44;;;;;;;3.67;1.73;;;8.30;99.90;;;;;;5000768;28;20187;-92
2022/11/24 00:09:10;;;;;;;1.47;1.20;;;8.20;99.90;;;;;;5003893;28;20579;-92
2022/11/24 00:11:36;;;;;;;1.17;1.07;;;8.20;99.90;;;;;;5016510;28;20229;-88
2022/11/24 00:14:04;;;;;;;1.73;1.37;;;8.30;99.90;;;;;;5016678;28;20214;-92
2022/11/24 00:16:32;;;;;;;1.10;1.10;;;8.30;99.90;;;;;;5033492;28;20542;-93
2022/11/24 00:18:59;;;;;;;1.73;0.87;;;8.30;99.90;;;;;;5017177;28;20178;-90
2022/11/24 00:21:26;;;;;;;3.50;1.30;;;8.30;99.90;;;;;;5019670;28;20377;-88
2022/11/24 00:23:52;;;;;;;23.20;1.73;;;8.30;99.90;;;;;;5005743;28;20206;-92
2022/11/24 00:26:21;;;;;;;2.63;1.57;;;8.40;99.90;;;;;;5022455;28;20217;-93
2022/11/24 00:28:48;;;;;;;2.23;1.70;;;8.30;99.90;;;;;;5036440;28;20218;-90
2022/11/24 00:31:18;;;;;;;1.73;1.40;;;8.30;99.90;;;;;;5021063;28;20182;-90
2022/11/24 00:33:45;;;;;;;6.90;1.53;;;8.30;99.90;;;;;;5037561;28;20188;-93
2022/11/24 00:36:10;;;;;;;2.47;1.33;;;8.30;99.90;;;;;;5020405;28;20304;-92
2022/11/24 00:38:36;;;;;;;0.53;0.53;;;8.30;99.90;;;;;;5023671;28;20328;-93
2022/11/24 00:41:02;;;;;;;1.60;1.50;;;8.30;99.90;;;;;;5005903;28;20269;-90
2022/11/24 00:43:28;;;;;;;3.90;2.10;;;8.30;99.90;;;;;;5020411;28;20215;-91
2022/11/24 00:45:53;;;;;;;1.57;1.47;;;8.40;99.90;;;;;;5020660;28;20202;-90
2022/11/24 00:48:19;;;;;;;1.73;1.63;;;8.50;99.90;;;;;;5008763;28;20217;-92
2022/11/24 00:50:58;;;;;;;4.77;3.20;;;8.60;99.90;;;;;;5018283;28;20221;-91
2022/11/24 00:53:24;;;;;;;1.87;1.77;;;8.70;99.90;;;;;;5037773;28;20938;-92
2022/11/24 00:55:51;;;;;;;12.90;2.07;;;8.70;99.90;;;;;;5028739;28;20217;-91
2022/11/24 00:58:17;;;;;;;1.63;1.53;;;8.80;99.90;;;;;;5019742;28;20190;-92
2022/11/24 01:00:43;;;;;;;5.50;1.93;;;8.80;99.90;;;;;;5006426;28;20233;-92
2022/11/24 01:03:08;;;;;;;4.70;2.20;;;8.80;99.90;;;;;;5036779;28;20258;-90
2022/11/24 01:05:38;;;;;;;4.73;1.63;;;8.90;99.90;;;;;;5021612;28;20229;-89
2022/11/24 01:08:05;;;;;;;2.43;1.93;;;9.00;99.90;;;;;;5023618;28;20710;-92
2022/11/24 01:10:31;;;;;;;3.93;2.17;;;9.00;99.90;;;;;;5045179;28;20297;-90
2022/11/24 01:12:56;;;;;;;4.47;1.57;;;9.00;99.90;;;;;;5019394;28;20190;-91
2022/11/24 01:15:22;;;;;;;1.90;1.80;;;9.00;99.90;;;;;;5020199;28;20667;-91
2022/11/24 01:17:48;;;;;;;1.37;1.10;;;9.00;99.90;;;;;;5017052;28;20219;-91
2022/11/24 01:20:14;;;;;;;7.90;2.23;;;9.00;99.90;;;;;;5002753;28;20570;-91
2022/11/24 01:22:41;;;;;;;1.80;0.90;;;9.00;99.90;;;;;;5037783;28;20319;-90
2022/11/24 01:25:08;;;;;;;6.40;1.70;;;9.00;99.90;;;;;;5021242;28;20198;-92
2022/11/24 01:27:34;;;;;;;1.30;1.10;;;9.00;99.90;;;;;;5018798;28;20241;-92
2022/11/24 01:30:00;;;;;;;4.00;2.27;;;9.00;99.90;;;;;;5019577;28;20257;-91
2022/11/24 01:32:26;;;;;;;4.10;2.47;;;9.10;99.90;;;;;;5035819;28;20214;-92
2022/11/24 01:34:52;;;;;;;1.67;1.20;;;9.10;99.90;;;;;;5016654;28;20214;-91
2022/11/24 01:37:17;;;;;;;1.30;1.30;;;9.10;99.90;;;;;;5020621;28;20194;-90
2022/11/24 01:39:43;;;;;;;0.73;0.67;;;9.10;99.90;;;;;;5005509;28;20186;-92
2022/11/24 01:42:09;;;;;;;2.23;2.03;;;9.20;99.90;;;;;;5019149;28;20230;-90
2022/11/24 01:44:35;;;;;;;1.07;0.93;;;9.20;99.90;;;;;;5017159;28;20579;-92
2022/11/24 01:47:31;;;;;;;1.67;1.43;;;9.30;99.90;;;;;;5018841;28;20305;-92
2022/11/24 01:50:00;;;;;;;2.10;1.53;;;9.30;99.90;;;;;;5034487;28;20217;-91
2022/11/24 01:52:35;;;;;;;5.07;1.80;;;9.30;99.90;;;;;;5019444;28;20194;-91
2022/11/24 01:55:08;;;;;;;3.40;1.27;;;9.30;99.90;;;;;;5054598;28;20178;-91
2022/11/24 01:57:40;;;;;;;1.60;1.47;;;9.30;99.90;;;;;;5036951;28;20620;-91
2022/11/24 02:00:09;;;;;;;1.10;1.00;;;9.30;99.90;;;;;;5036112;28;20210;-90
2022/11/24 02:02:35;;;;;;;0.80;0.80;;;9.20;99.90;;;;;;5035230;28;20226;-92
2022/11/24 02:05:07;;;;;;;0.40;0.40;;;9.20;99.90;;;;;;5002497;28;20214;-93
2022/11/24 02:07:35;;;;;;;2.53;2.30;;;9.20;99.90;;;;;;5035700;28;20461;-90
2022/11/24 02:10:13;;;;;;;13.03;3.20;;;9.20;99.90;;;;;;5021271;28;20613;-92
2022/11/24 02:12:45;;;;;;;1.70;1.60;;;9.20;99.90;;;;;;5034375;28;20308;-91
2022/11/24 02:15:14;;;;;;;1.60;1.03;;;9.10;99.90;;;;;;5035993;28;20249;-90
2022/11/24 02:17:39;;;;;;;3.00;1.43;;;9.00;99.90;;;;;;5017888;28;20217;-89
2022/11/24 02:20:08;;;;;;;4.80;0.73;;;9.00;99.90;;;;;;5006834;28;20701;-91
2022/11/24 02:22:55;;;;;;;0.60;0.60;;;9.00;99.90;;;;;;5033352;28;20234;-92
2022/11/24 02:25:36;;;;;;;3.80;2.40;;;9.00;99.90;;;;;;5036460;28;20586;-93
2022/11/24 02:28:07;;;;;;;2.67;1.87;;;9.00;99.90;;;;;;5034860;28;20213;-92
2022/11/24 02:30:34;;;;;;;4.87;1.47;;;9.10;99.90;;;;;;5037519;28;20242;-93
2022/11/24 02:33:00;;;;;;;0.40;0.40;;;9.10;99.90;;;;;;5018231;28;20701;-93
2022/11/24 02:35:27;;;;;;;1.80;1.67;;;9.10;99.90;;;;;;5002513;28;20253;-93
2022/11/24 02:37:53;;;;;;;0.30;0.30;;;9.20;99.90;;;;;;5004453;28;20222;-90
2022/11/24 02:40:24;;;;;;;8.47;1.40;;;9.10;99.90;;;;;;5002425;28;20241;-90
2022/11/24 02:42:55;;;;;;;1.40;0.67;;;9.10;99.90;;;;;;5036282;28;20202;-92
2022/11/24 02:45:22;;;;;;;0.77;0.67;;;9.10;99.90;;;;;;5033870;28;20691;-92
2022/11/24 02:47:47;;;;;;;5.00;1.17;;;9.10;99.90;;;;;;5017994;28;20218;-91
2022/11/24 02:50:13;;;;;;;2.13;0.70;;;9.10;99.90;;;;;;5000532;28;20691;-92
2022/11/24 02:52:40;;;;;;;3.00;1.03;;;9.10;99.90;;;;;;5000771;28;20237;-92
2022/11/24 02:55:06;;;;;;;3.40;0.83;;;9.00;99.90;;;;;;5018065;28;20638;-92
2022/11/24 02:57:32;;;;;;;1.97;0.97;;;9.10;99.90;;;;;;5035427;28;20210;-93
2022/11/24 02:59:57;;;;;;;1.43;0.70;;;9.10;99.90;;;;;;5018901;28;20689;-90
2022/11/24 03:02:23;;;;;;;2.37;0.67;;;9.10;99.90;;;;;;5035073;28;20237;-90
2022/11/24 03:04:49;;;;;;;0.87;0.87;;;9.10;99.90;;;;;;5001994;28;20206;-91
2022/11/24 03:07:14;;;;;;;1.40;1.27;;;9.10;99.90;;;;;;5001282;28;20189;-91
2022/11/24 03:09:41;;;;;;;6.97;2.60;;;9.10;99.90;;;;;;5020942;28;20197;-90
2022/11/24 03:12:07;;;;;;;1.57;1.47;;;9.00;99.90;;;;;;5018307;28;20327;-91
2022/11/24 03:14:32;;;;;;;1.03;1.03;;;9.00;99.90;;;;;;5002267;28;20694;-88
2022/11/24 03:16:58;;;;;;;1.80;1.70;;;8.90;99.90;;;;;;5018050;28;20220;-91
2022/11/24 03:19:24;;;;;;;2.50;0.90;;;8.90;99.90;;;;;;5000735;28;20190;-91
2022/11/24 03:21:49;;;;;;;1.00;0.90;;;8.90;99.90;;;;;;5003372;28;20202;-90
2022/11/24 03:24:15;;;;;;;3.40;1.20;;;8.90;99.90;;;;;;5019542;28;20750;-91
2022/11/24 03:26:41;;;;;;;2.67;1.93;;;8.90;99.90;;;;;;5001914;28;20748;-92
2022/11/24 03:29:07;;;;;;;1.17;1.17;;;8.90;99.90;;;;;;5010598;28;20214;-92
2022/11/24 03:31:33;;;;;;;0.50;0.50;;;8.90;99.90;;;;;;5004760;28;20189;-90
2022/11/24 03:33:59;;;;;;;1.10;0.47;;;8.90;99.90;;;;;;5022014;28;20187;-90
2022/11/24 03:36:25;;;;;;;1.90;1.53;;;8.90;99.90;;;;;;5003321;28;20543;-92
2022/11/24 03:38:50;;;;;;;0.73;0.73;;;8.90;99.90;;;;;;5021718;28;20209;-91
2022/11/24 03:41:16;;;;;;;0.90;0.90;;;8.90;99.90;;;;;;5034059;28;20226;-91
2022/11/24 03:43:43;;;;;;;3.37;1.20;;;8.90;99.90;;;;;;5017284;28;20379;-91
2022/11/24 03:46:09;;;;;;;2.10;0.80;;;8.80;99.90;;;;;;5033143;28;20196;-93
2022/11/24 03:48:35;;;;;;;1.80;1.70;;;8.80;99.90;;;;;;5035124;28;20226;-90
2022/11/24 03:51:02;;;;;;;0.80;0.70;;;8.80;99.90;;;;;;5001360;28;20218;-91
2022/11/24 03:53:30;;;;;;;0.60;0.37;;;8.80;99.90;;;;;;5033857;28;20305;-94
2022/11/24 03:55:56;;;;;;;6.43;0.77;;;8.90;99.90;;;;;;5050118;28;20217;-92
2022/11/24 03:58:22;;;;;;;2.77;1.63;;;8.90;99.90;;;;;;5030505;28;20251;-92
2022/11/24 04:00:49;;;;;;;0.43;0.37;;;8.90;99.90;;;;;;5034829;28;20186;-90
2022/11/24 04:03:15;;;;;;;1.73;1.63;;;9.00;99.90;;;;;;5033910;28;20904;-91
2022/11/24 04:05:41;;;;;;;1.53;1.43;;;9.00;99.90;;;;;;5036246;28;20493;-92
2022/11/24 04:08:07;;;;;;;0.30;0.30;;;9.00;99.90;;;;;;5000436;28;20215;-91
2022/11/24 04:10:35;;;;;;;10.10;1.70;;;9.00;99.90;;;;;;5003149;28;20683;-92
2022/11/24 04:13:02;;;;;;;5.17;0.93;;;9.10;99.90;;;;;;5041457;28;20253;-91
2022/11/24 04:15:28;;;;;;;6.43;2.30;;;9.10;99.90;;;;;;5017615;28;20222;-92
2022/11/24 04:17:55;;;;;;;5.63;1.10;;;9.10;99.90;;;;;;5031043;28;20232;-91
2022/11/24 04:20:23;;;;;;;2.93;1.10;;;9.10;99.90;;;;;;5035530;28;20272;-93
2022/11/24 04:22:50;;;;;;;10.13;1.40;;;9.10;99.90;;;;;;5033715;28;20540;-92
2022/11/24 04:25:16;;;;;;;0.50;0.50;;;9.00;99.90;;;;;;5016056;28;20201;-92
2022/11/24 04:27:42;;;;;;;0.40;0.40;;;9.00;99.90;;;;;;5031224;28;20185;-89
2022/11/24 04:30:09;;;;;;;4.90;1.93;;;9.00;99.90;;;;;;5014963;28;20581;-91
2022/11/24 04:32:35;;;;;;;1.53;1.37;;;8.90;99.90;;;;;;5032985;28;20225;-90
2022/11/24 04:35:01;;;;;;;2.20;1.53;;;8.90;99.90;;;;;;4999168;28;20211;-92
2022/11/24 04:37:27;;;;;;;10.13;1.47;;;8.80;99.90;;;;;;5003022;28;20251;-89
2022/11/24 04:39:54;;;;;;;1.77;0.97;;;8.70;99.90;;;;;;5015230;28;20191;-92
2022/11/24 04:42:20;;;;;;;0.30;0.30;;;8.70;99.90;;;;;;4998156;28;20234;-92
2022/11/24 04:44:46;;;;;;;6.03;1.43;;;8.60;99.90;;;;;;5017733;28;20214;-91
2022/11/24 04:47:18;;;;;;;0.87;0.83;;;8.60;99.90;;;;;;5001820;28;20589;-92
2022/11/24 04:49:46;;;;;;;3.30;1.10;;;8.50;99.90;;;;;;5033046;28;20574;-92
2022/11/24 04:52:12;;;;;;;2.10;1.50;;;8.50;99.90;;;;;;5019577;28;20247;-91
2022/11/24 04:54:37;;;;;;;2.63;1.70;;;8.40;99.90;;;;;;5017103;28;20223;-91
2022/11/24 04:57:03;;;;;;;1.67;1.17;;;8.40;99.90;;;;;;4999434;28;20687;-93
2022/11/24 04:59:29;;;;;;;7.00;1.10;;;8.40;99.90;;;;;;5018931;28;20214;-93
2022/11/24 05:01:54;;;;;;;10.27;1.73;;;8.30;99.90;;;;;;5018669;28;20227;-89
2022/11/24 05:04:20;;;;;;;1.50;1.03;;;8.30;99.90;;;;;;5034102;28;20642;-92
2022/11/24 05:06:46;;;;;;;1.00;1.00;;;8.30;99.90;;;;;;5017110;28;20669;-92
2022/11/24 05:09:16;;;;;;;8.03;0.80;;;8.30;99.90;;;;;;5002667;28;20217;-90
2022/11/24 05:11:42;;;;;;;4.10;1.10;;;8.30;99.90;;;;;;5020403;28;20209;-90
2022/11/24 05:14:08;;;;;;;2.37;1.30;;;8.20;99.90;;;;;;5022264;28;20301;-93
2022/11/24 05:16:34;;;;;;;3.83;1.00;;;8.20;99.90;;;;;;5005056;28;20297;-90
2022/11/24 05:19:00;;;;;;;2.33;0.60;;;8.20;99.90;;;;;;5024138;28;20174;-92
2022/11/24 05:21:27;;;;;;;1.17;1.13;;;8.30;99.90;;;;;;5018852;28;20219;-93
2022/11/24 05:23:52;;;;;;;0.40;0.40;;;8.20;99.90;;;;;;5021698;28;20225;-93
2022/11/24 05:26:18;;;;;;;0.33;0.33;;;8.20;99.90;;;;;;5003289;28;20565;-90
2022/11/24 05:28:44;;;;;;;2.00;1.80;;;8.30;99.90;;;;;;5020734;28;20276;-92
2022/11/24 05:31:10;;;;;;;0.77;0.67;;;8.30;99.90;;;;;;5020863;28;20282;-93
2022/11/24 05:33:36;;;;;;;2.00;1.13;;;8.30;99.90;;;;;;5011437;28;20222;-92
2022/11/24 05:36:03;;;;;;;2.70;1.30;;;8.40;99.90;;;;;;5006964;28;20301;-90
2022/11/24 05:38:30;;;;;;;0.97;0.77;;;8.40;99.90;;;;;;5019075;28;20245;-94
2022/11/24 05:41:03;;;;;;;2.90;1.17;;;8.50;99.90;;;;;;5037590;28;20583;-93
2022/11/24 05:43:29;;;;;;;1.17;0.93;;;8.60;99.90;;;;;;5038075;28;20206;-93
2022/11/24 05:45:59;;;;;;;6.63;1.57;;;8.60;99.90;;;;;;5018767;28;20202;-92
2022/11/24 05:48:25;;;;;;;0.53;0.50;;;8.60;99.90;;;;;;5034799;28;20229;-91
2022/11/24 05:50:55;;;;;;;3.60;0.90;;;8.70;99.90;;;;;;5018588;28;20218;-93
2022/11/24 05:53:21;;;;;;;0.83;0.83;;;8.70;99.90;;;;;;5018651;28;20222;-90
2022/11/24 05:55:47;;;;;;;2.90;0.60;;;8.70;99.90;;;;;;5017644;28;20253;-90
2022/11/24 05:58:13;;;;;;;0.63;0.63;;;8.70;99.90;;;;;;5020130;28;20658;-93
2022/11/24 06:00:38;;;;;;;0.30;0.30;;;8.80;99.90;;;;;;5002757;28;20214;-91
2022/11/24 06:03:04;;;;;;;0.20;0.20;;;8.80;99.90;;;;;;4990635;28;20257;-94
2022/11/24 06:05:30;;;;;;;0.57;0.57;;;8.80;99.90;;;;;;5022211;28;20253;-91
2022/11/24 06:07:58;;;;;;;0.67;0.67;;;8.80;99.90;;;;;;5022376;28;20276;-91
2022/11/24 06:10:23;;;;;;;0.73;0.43;;;8.80;99.90;;;;;;5030144;28;20222;-90
2022/11/24 06:12:50;;;;;;;3.60;1.63;;;8.80;99.90;;;;;;4997117;28;20218;-90
2022/11/24 06:15:16;;;;;;;1.00;1.00;;;8.80;99.90;;;;;;5039086;28;20209;-92
2022/11/24 06:17:42;;;;;;;3.50;1.47;;;8.80;99.90;;;;;;5020640;28;20241;-90
2022/11/24 06:20:09;;;;;;;0.80;0.80;;;8.80;99.90;;;;;;5022053;28;20238;-90
2022/11/24 06:22:34;;;;;;;2.50;1.30;;;8.80;99.90;;;;;;5022532;28;20229;-91
2022/11/24 06:25:00;;;;;;;3.17;0.60;;;8.80;99.90;;;;;;5005408;28;20688;-90
2022/11/24 06:27:26;;;;;;;7.40;1.43;;;8.80;99.90;;;;;;5021999;28;20210;-92
2022/11/24 06:29:52;;;;;;;1.30;1.07;;;8.80;99.90;;;;;;5038977;28;20210;-92
2022/11/24 06:32:18;;;;;;;1.70;0.73;;;8.80;99.90;;;;;;5004428;28;20221;-91
2022/11/24 06:34:44;;;;;;;3.80;0.60;;;8.80;99.90;;;;;;5021852;28;20210;-91
2022/11/24 06:37:10;;;;;;;6.13;0.87;;;8.80;99.90;;;;;;5021964;28;20193;-91
2022/11/24 06:39:36;;;;;;;11.07;0.70;;;8.70;99.90;;;;;;5019487;28;20683;-90
2022/11/24 06:42:02;;;;;;;1.50;1.40;;;8.70;99.90;;;;;;5020897;28;20227;-92
2022/11/24 06:44:28;;;;;;;1.73;0.77;;;8.70;99.90;;;;;;5021114;28;20206;-89
2022/11/24 06:46:54;;;;;;;1.17;1.00;;;8.70;99.90;;;;;;5022359;28;20205;-92
2022/11/24 06:49:19;;;;;;;3.90;2.00;;;8.70;99.90;;;;;;5021303;28;20182;-90
2022/11/24 06:51:45;;;;;;;0.77;0.77;;;8.70;99.90;;;;;;5006625;28;20651;-90
2022/11/24 06:54:19;;;;;;;4.00;2.13;;;8.70;99.90;;;;;;5021685;28;20234;-90
2022/11/24 06:56:45;;;;;;;1.63;0.63;;;8.70;99.90;;;;;;5038126;28;20690;-90
2022/11/24 06:59:17;;;;;;;4.47;0.90;;;8.70;99.90;;;;;;5021799;28;20222;-92
2022/11/24 07:01:43;;;;;;;0.57;0.57;;;8.70;99.90;;;;;;5038772;28;20310;-92
2022/11/24 07:04:09;;;;;;;0.93;0.83;;;8.70;99.90;;;;;;5002719;28;20658;-92
2022/11/24 07:06:34;;;;;;;10.80;3.40;;;8.60;99.90;;;;;;5034833;28;20550;-91
2022/11/24 07:09:00;;;;;;;4.63;3.40;;;8.60;99.90;;;;;;5000842;28;20221;-91
2022/11/24 07:11:26;;;;;;;1.63;1.40;;;8.60;99.90;;;;;;5003834;28;20217;-90
2022/11/24 07:13:52;;;;;;;2.73;2.07;;;8.60;99.90;;;;;;4993439;28;20621;-92
2022/11/24 07:16:20;;;;;;;4.13;0.83;;;8.50;99.90;;;;;;5011638;28;20384;-92
2022/11/24 07:18:47;;;;;;;7.33;1.23;;;8.50;99.90;;;;;;5027665;28;20222;-91
2022/11/24 07:21:13;;;;;;;1.63;1.53;;;8.50;99.90;;;;;;5016019;28;20277;-91
2022/11/24 07:23:39;;;;;;;2.57;2.37;;;8.40;99.90;;;;;;5001355;28;20695;-91
2022/11/24 07:26:06;;;;;;;1.03;0.97;;;8.40;99.90;;;;;;5000916;28;20206;-89
2022/11/24 07:28:33;;;;;;;0.40;0.40;;;8.50;99.90;;;;;;5010627;28;20194;-91
2022/11/24 07:31:07;;;;;;;1.00;0.93;;;8.50;99.90;;;;;;5013584;28;20270;-91
2022/11/24 07:33:33;;;;;;;6.43;1.27;;;8.50;99.90;;;;;;5017837;28;20324;-91
2022/11/24 07:35:59;;;;;;;2.00;1.43;;;8.50;99.90;;;;;;5014622;28;20220;-91
2022/11/24 07:38:25;;;;;;;9.93;2.10;;;8.50;99.90;;;;;;5017605;28;20218;-92
2022/11/24 07:40:51;;;;;;;0.97;0.93;;;8.50;99.90;;;;;;5002534;28;20709;-91
2022/11/24 07:43:17;;;;;;;6.37;1.23;;;8.60;99.90;;;;;;5015107;28;20209;-92
2022/11/24 07:45:42;;;;;;;3.53;0.70;;;8.70;99.90;;;;;;5001812;28;20186;-94
2022/11/24 07:48:10;;;;;;;0.87;0.87;;;8.70;99.90;;;;;;5016218;28;20317;-90
2022/11/24 07:50:36;;;;;;;0.43;0.43;;;8.70;99.90;;;;;;4999873;28;20222;-91
2022/11/24 07:53:03;;;;;;;2.73;1.77;;;8.80;99.90;;;;;;5015418;28;20213;-94
2022/11/24 07:55:29;;;;;;;1.03;1.00;;;9.00;99.90;;;;;;4997849;28;20313;-90
2022/11/24 07:57:59;;;;;;;2.10;0.90;;;9.00;99.90;;;;;;5015726;28;20631;-91
2022/11/24 08:00:26;;;;;;;0.93;0.87;;;9.00;99.90;;;;;;5030831;28;20297;-92
2022/11/24 08:02:52;;;;;;;1.60;1.03;;;9.10;99.90;;;;;;5014632;28;20230;-91
2022/11/24 08:05:17;;;;;;;0.83;0.83;;;9.20;99.90;;;;;;5017357;28;20234;-93
2022/11/24 08:07:43;;;;;;;2.80;0.87;;;9.30;99.90;;;;;;4999827;28;20249;-92
2022/11/24 08:10:09;;;;;;;0.60;0.43;;;9.40;99.90;;;;;;5001931;28;20194;-91
2022/11/24 08:12:35;;;;;;;2.37;1.80;;;9.50;99.90;;;;;;5015884;28;20218;-93
2022/11/24 08:15:00;;;;;;;4.03;0.80;;;9.70;99.90;;;;;;5033957;28;20577;-91
2022/11/24 08:17:27;;;;;;;3.90;1.13;;;9.80;99.90;;;;;;5005790;28;20663;-93
2022/11/24 08:19:53;;;;;;;4.93;1.73;;;9.90;99.90;;;;;;5030045;28;20218;-91
2022/11/24 08:22:19;;;;;;;1.50;0.63;;;9.90;99.90;;;;;;5037643;28;20558;-90
2022/11/24 08:24:47;;;;;;;6.53;1.77;;;10.00;99.90;;;;;;5000759;28;20197;-91
2022/11/24 08:27:14;;;;;;;5.63;1.47;;;10.00;99.90;;;;;;4999014;28;20218;-91
2022/11/24 08:29:40;;;;;;;1.40;1.07;;;9.90;99.90;;;;;;5016690;28;20320;-90
2022/11/24 08:32:07;;;;;;;5.33;2.90;;;10.00;99.90;;;;;;5032264;28;20210;-92
2022/11/24 08:34:32;;;;;;;7.50;2.67;;;10.00;99.90;;;;;;5013480;28;20217;-90
2022/11/24 08:36:58;;;;;;;2.43;1.63;;;10.00;99.90;;;;;;5015394;28;20194;-94
2022/11/24 08:39:24;;;;;;;3.17;2.00;;;9.90;99.90;;;;;;5015803;28;20743;-92
2022/11/24 08:41:50;;;;;;;4.00;2.00;;;9.80;99.90;;;;;;5002963;28;20241;-92
2022/11/24 08:44:17;;;;;;;0.80;0.80;;;9.80;99.90;;;;;;5020707;28;20224;-89
2022/11/24 08:46:44;;;;;;;7.30;3.53;;;9.80;99.90;;;;;;5022688;28;20644;-91
2022/11/24 08:49:10;;;;;;;8.13;2.77;;;9.80;99.90;;;;;;5035153;28;20228;-93
2022/11/24 08:51:36;;;;;;;7.87;2.70;;;9.80;99.90;;;;;;5018668;28;20560;-91
2022/11/24 08:54:01;;;;;;;3.00;1.40;;;9.80;99.90;;;;;;5035070;28;20667;-90
2022/11/24 08:56:30;;;;;;;1.00;1.00;;;9.80;99.90;;;;;;5018297;28;20209;-93
2022/11/24 08:58:57;;;;;;;2.53;0.80;;;9.80;99.90;;;;;;5034451;28;20539;-94
2022/11/24 09:01:23;;;;;;;1.77;1.67;;;9.80;99.90;;;;;;5021435;28;20178;-91
2022/11/24 09:03:50;;;;;;;0.60;0.60;;;9.80;99.90;;;;;;5030222;28;20217;-92
2022/11/24 09:06:18;;;;;;;1.37;0.80;;;9.80;99.90;;;;;;5035697;28;20206;-90
2022/11/24 09:08:44;;;;;;;2.07;1.83;;;9.90;99.90;;;;;;5036493;28;20213;-92
2022/11/24 09:11:12;;;;;;;0.50;0.50;;;9.90;99.90;;;;;;5004957;28;20213;-90
2022/11/24 09:13:39;;;;;;;2.50;0.90;;;9.80;99.90;;;;;;5021852;28;20242;-90
2022/11/24 09:16:10;;;;;;;1.20;1.10;;;9.90;99.90;;;;;;5035910;28;20512;-91
2022/11/24 09:18:36;;;;;;;2.27;1.33;;;9.90;99.90;;;;;;5029437;28;20249;-92
2022/11/24 09:21:13;;;;;;;3.93;1.60;;;10.00;99.90;;;;;;5021099;28;20945;-92
2022/11/24 09:23:39;;;;;;;2.57;1.03;;;10.00;99.90;;;;;;5034218;28;20312;-93
2022/11/24 09:26:11;;;;;;;2.10;1.10;;;10.00;99.90;;;;;;5054124;28;20214;-89
2022/11/24 09:28:38;;;;;;;4.27;1.07;;;10.00;99.90;;;;;;5035907;28;20210;-92
2022/11/24 09:31:07;;;;;;;0.80;0.80;;;10.00;99.90;;;;;;5013466;28;20256;-90
2022/11/24 09:33:34;;;;;;;2.20;0.80;;;10.10;99.90;;;;;;5038469;28;20209;-91
2022/11/24 09:36:00;;;;;;;1.23;0.87;;;10.00;99.90;;;;;;5022333;28;20701;-91
2022/11/24 09:38:26;;;;;;;0.60;0.60;;;10.10;99.90;;;;;;5039166;28;20218;-89
2022/11/24 09:40:52;;;;;;;0.63;0.63;;;10.10;99.90;;;;;;5021831;28;20237;-91
2022/11/24 09:43:39;;;;;;;0.30;0.30;;;10.10;99.90;;;;;;5022937;28;20542;-90
2022/11/24 09:46:09;;;;;;;0.50;0.50;;;10.10;99.90;;;;;;5040608;28;20587;-93
2022/11/24 09:48:42;;;;;;;1.03;0.50;;;10.30;99.90;;;;;;5040537;28;20218;-91
2022/11/24 09:51:13;;;;;;;0.67;0.67;;;10.50;99.90;;;;;;5040900;28;20257;-88
2022/11/24 09:53:44;;;;;;;0.37;0.37;;;10.40;99.90;;;;;;5037715;28;20633;-93
2022/11/24 09:56:14;;;;;;;2.90;1.27;;;10.50;99.90;;;;;;5039236;28;20218;-93
2022/11/24 09:58:42;;;;;;;1.17;1.17;;;10.50;99.90;;;;;;5040127;28;20218;-93
2022/11/24 10:01:16;;;;;;;7.23;1.60;;;10.40;99.90;;;;;;5040884;28;20233;-92
2022/11/24 10:03:48;;;;;;;0.47;0.40;;;10.40;99.90;;;;;;5058090;28;20230;-92
2022/11/24 10:06:25;;;;;;;3.10;1.47;;;10.40;99.90;;;;;;5058405;28;20221;-94
2022/11/24 10:09:20;;;;;;;2.23;1.70;;;10.50;99.90;;;;;;5042004;28;20222;-92
2022/11/24 10:12:16;;;;;;;0.70;0.70;;;10.60;99.90;;;;;;5040321;28;20198;-93
2022/11/24 10:14:54;;;;;;;2.40;0.83;;;10.50;99.90;;;;;;5040198;28;20214;-92
2022/11/24 10:17:47;;;;;;;0.33;0.33;;;10.60;99.90;;;;;;5036666;28;20208;-91
2022/11/24 10:20:43;;;;;;;0.57;0.57;;;10.90;99.90;;;;;;5054987;28;20247;-93
2022/11/24 10:23:42;;;;;;;0.43;0.40;;;10.70;99.90;;;;;;5040362;28;20619;-91
2022/11/24 10:26:24;;;;;;;2.73;1.17;;;10.60;99.90;;;;;;5038392;28;20313;-92
2022/11/24 10:28:56;;;;;;;1.17;1.07;;;10.60;99.90;;;;;;5038157;28;20256;-93
2022/11/24 10:31:30;;;;;;;5.23;0.80;;;10.60;99.90;;;;;;5005245;28;20194;-92
2022/11/24 10:34:02;;;;;;;1.43;0.90;;;10.50;99.90;;;;;;5034873;28;20212;-91
2022/11/24 10:36:53;;;;;;;2.67;1.30;;;10.50;99.90;;;;;;5034000;28;20548;-91
2022/11/24 10:39:53;;;;;;;1.37;0.90;;;10.60;99.90;;;;;;5036576;28;20224;-92
2022/11/24 10:42:27;;;;;;;0.57;0.57;;;10.60;99.90;;;;;;5035872;28;20719;-93
2022/11/24 10:45:09;;;;;;;1.07;0.70;;;10.60;99.90;;;;;;5031950;28;20276;-94
2022/11/24 10:47:35;;;;;;;0.87;0.53;;;10.60;99.90;;;;;;5037592;28;20480;-93
2022/11/24 10:50:03;;;;;;;0.70;0.60;;;10.60;99.90;;;;;;5018407;28;20205;-92
2022/11/24 10:52:35;;;;;;;2.87;2.67;;;10.60;99.90;;;;;;5036000;28;20301;-92
2022/11/24 10:55:04;;;;;;;5.33;0.97;;;10.70;99.90;;;;;;5048335;28;20633;-93
2022/11/24 10:57:40;;;;;;;1.67;1.07;;;10.70;99.90;;;;;;5034949;28;20223;-91
2022/11/24 11:00:18;;;;;;;2.70;1.23;;;10.70;99.90;;;;;;5033519;28;20579;-92
2022/11/24 11:02:45;;;;;;;0.80;0.80;;;10.70;99.90;;;;;;5048114;28;20331;-92
2022/11/24 11:05:26;;;;;;;0.63;0.63;;;10.70;99.90;;;;;;5002917;28;20240;-92
2022/11/24 11:08:21;;;;;;;1.13;1.13;;;10.70;99.90;;;;;;5033185;28;20320;-92
2022/11/24 11:11:15;;;;;;;3.23;1.57;;;10.60;99.90;;;;;;5034992;28;20592;-92
2022/11/24 11:13:54;;;;;;;1.63;1.27;;;10.70;99.90;;;;;;5034579;28;20225;-91
2022/11/24 11:16:40;;;;;;;1.87;1.20;;;10.70;99.90;;;;;;5036269;28;20540;-93
2022/11/24 11:19:31;;;;;;;1.33;1.03;;;10.70;99.90;;;;;;5035028;28;20267;-91
2022/11/24 11:22:25;;;;;;;2.57;2.17;;;10.80;99.90;;;;;;5033186;28;20674;-93
2022/11/24 11:25:08;;;;;;;1.57;1.47;;;10.80;99.90;;;;;;5023973;28;20714;-91
2022/11/24 11:27:34;;;;;;;12.37;1.80;;;10.90;99.90;;;;;;5035994;28;20209;-93
2022/11/24 11:30:22;;;;;;;1.50;1.43;;;11.00;99.90;;;;;;5016752;28;20211;-91
2022/11/24 11:32:59;;;;;;;1.40;1.10;;;11.10;99.90;;;;;;5033563;28;20218;-92
2022/11/24 11:35:27;;;;;;;1.43;1.20;;;11.00;99.90;;;;;;5034207;28;20282;-91
2022/11/24 11:38:00;;;;;;;3.80;2.50;;;11.10;99.90;;;;;;5017996;28;20226;-92
2022/11/24 11:40:30;;;;;;;1.30;1.20;;;11.10;99.90;;;;;;5035897;28;20187;-90
2022/11/24 11:43:11;;;;;;;2.23;2.03;;;11.20;99.90;;;;;;5047669;28;20723;-90
2022/11/24 11:45:44;;;;;;;1.37;1.23;;;11.20;99.90;;;;;;5033102;28;20224;-92
2022/11/24 11:48:29;;;;;;;3.67;1.87;;;11.20;99.90;;;;;;5034547;28;20233;-91
2022/11/24 11:51:08;;;;;;;2.97;1.37;;;11.30;99.90;;;;;;5035005;28;20712;-92
2022/11/24 11:53:44;;;;;;;4.10;1.97;;;11.20;99.90;;;;;;5035074;28;20217;-91
2022/11/24 11:56:29;;;;;;;5.23;1.40;;;11.30;99.90;;;;;;5037171;28;20283;-91
2022/11/24 11:59:19;;;;;;;3.13;2.50;;;11.40;99.90;;;;;;5034772;28;20248;-90
2022/11/24 12:01:54;;;;;;;5.50;2.03;;;11.50;99.90;;;;;;5036032;28;20705;-90
2022/11/24 12:04:59;;;;;;;1.90;1.53;;;11.50;99.90;;;;;;5035890;28;20204;-90
2022/11/24 12:07:25;;;;;;;7.40;2.23;;;11.50;99.90;;;;;;4996079;28;20180;-93
2022/11/24 12:10:13;;;;;;;3.10;1.63;;;11.50;99.90;;;;;;4982087;28;20201;-88
2022/11/24 12:12:38;;;;;;;3.10;0.73;;;11.50;99.90;;;;;;5022078;28;20630;-91
2022/11/24 12:15:14;;;;;;;3.77;1.30;;;11.60;99.90;;;;;;5038313;28;20333;-90
2022/11/24 12:17:55;;;;;;;5.30;1.13;;;11.60;99.90;;;;;;5037944;28;20303;-90
2022/11/24 12:20:42;;;;;;;3.07;2.30;;;11.60;99.90;;;;;;5036141;28;20218;-92
2022/11/24 12:23:35;;;;;;;1.73;1.10;;;11.60;99.90;;;;;;5034016;28;20714;-91
2022/11/24 12:26:25;;;;;;;2.63;0.93;;;11.60;99.90;;;;;;5034268;28;20721;-91
2022/11/24 12:29:24;;;;;;;6.17;1.10;;;11.60;99.90;;;;;;5034736;28;20264;-92
2022/11/24 12:31:55;;;;;;;1.80;1.70;;;11.60;99.90;;;;;;5037926;28;20690;-91
2022/11/24 12:35:00;;;;;;;10.97;1.37;;;11.60;99.90;;;;;;5037677;28;20258;-91
2022/11/24 12:37:35;;;;;;;1.17;1.07;;;11.60;99.90;;;;;;5035989;28;20197;-93
2022/11/24 12:40:15;;;;;;;4.93;1.40;;;11.70;99.90;;;;;;5038713;28;20189;-93
2022/11/24 12:43:18;;;;;;;14.93;1.47;;;11.90;99.90;;;;;;5036652;28;20317;-93
2022/11/24 12:46:13;;;;;;;2.53;1.00;;;12.10;99.90;;;;;;5037384;28;20340;-90
2022/11/24 12:49:05;;;;;;;4.80;1.50;;;12.30;99.90;;;;;;5037845;28;20225;-93
2022/11/24 12:51:38;;;;;;;2.33;1.27;;;12.20;99.90;;;;;;5036423;28;20215;-92
2022/11/24 12:54:11;;;;;;;1.77;1.03;;;12.20;99.90;;;;;;5035850;28;20225;-93
2022/11/24 12:56:45;;;;;;;5.10;1.63;;;12.20;99.90;;;;;;5036237;28;20221;-91
2022/11/24 12:59:34;;;;;;;2.33;0.60;;;12.20;99.90;;;;;;5038215;28;20214;-92
2022/11/24 13:02:18;;;;;;;4.13;1.13;;;12.20;99.90;;;;;;5036808;28;20215;-92
2022/11/24 13:05:12;;;;;;;6.00;1.77;;;12.10;99.90;;;;;;5037259;28;20225;-92
2022/11/24 13:07:52;;;;;;;5.50;0.93;;;12.10;99.90;;;;;;5034909;28;20309;-91
2022/11/24 13:10:24;;;;;;;0.73;0.70;;;12.00;99.90;;;;;;5054226;28;20178;-92